sensor_id;sensor_type;location;lat;lon;timestamp;P1;P2;P0
46302;PMS7003;32029;51.358;5.628;2022-08-30T00:00:48;6.60;6.60;4.80
46302;PMS7003;32029;51.358;5.628;2022-08-30T00:03:33;6.00;4.60;4.00
46302;PMS7003;32029;51.358;5.628;2022-08-30T00:06:03;7.67;4.67;4.67
46302;PMS7003;32029;51.358;5.628;2022-08-30T00:08:33;6.60;6.60;5.40
46302;PMS7003;32029;51.358;5.628;2022-08-30T00:11:01;7.67;6.33;4.33
46302;PMS7003;32029;51.358;5.628;2022-08-30T00:13:31;6.20;6.00;5.40
46302;PMS7003;32029;51.358;5.628;2022-08-30T00:15:58;5.00;5.00;4.00
46302;PMS7003;32029;51.358;5.628;2022-08-30T00:18:25;5.67;4.00;3.00
46302;PMS7003;32029;51.358;5.628;2022-08-30T00:20:53;9.00;6.60;5.20
46302;PMS7003;32029;51.358;5.628;2022-08-30T00:23:21;7.00;7.00;6.00
46302;PMS7003;32029;51.358;5.628;2022-08-30T00:25:48;10.00;6.00;4.33
46302;PMS7003;32029;51.358;5.628;2022-08-30T00:28:15;8.67;6.67;6.00
46302;PMS7003;32029;51.358;5.628;2022-08-30T00:30:43;7.80;6.60;5.00
46302;PMS7003;32029;51.358;5.628;2022-08-30T00:33:11;6.00;6.00;5.00
46302;PMS7003;32029;51.358;5.628;2022-08-30T00:35:39;4.67;3.00;3.00
46302;PMS7003;32029;51.358;5.628;2022-08-30T00:38:10;6.40;6.40;4.80
46302;PMS7003;32029;51.358;5.628;2022-08-30T00:40:38;4.00;3.00;3.00
46302;PMS7003;32029;51.358;5.628;2022-08-30T00:43:08;10.00;8.00;6.00
46302;PMS7003;32029;51.358;5.628;2022-08-30T00:45:38;8.20;6.60;4.60
46302;PMS7003;32029;51.358;5.628;2022-08-30T00:48:05;8.00;7.33;6.00
46302;PMS7003;32029;51.358;5.628;2022-08-30T00:50:36;7.00;7.00;5.67
46302;PMS7003;32029;51.358;5.628;2022-08-30T00:53:16;7.00;5.00;4.00
46302;PMS7003;32029;51.358;5.628;2022-08-30T00:55:47;7.80;6.00;5.00
46302;PMS7003;32029;51.358;5.628;2022-08-30T00:58:18;8.40;7.20;6.00
46302;PMS7003;32029;51.358;5.628;2022-08-30T01:00:51;7.60;6.80;5.00
46302;PMS7003;32029;51.358;5.628;2022-08-30T01:03:21;6.80;6.80;5.80
46302;PMS7003;32029;51.358;5.628;2022-08-30T01:05:49;6.67;5.33;4.33
46302;PMS7003;32029;51.358;5.628;2022-08-30T01:08:17;5.00;5.00;4.00
46302;PMS7003;32029;51.358;5.628;2022-08-30T01:10:47;7.67;7.00;5.00
46302;PMS7003;32029;51.358;5.628;2022-08-30T01:13:16;8.00;6.40;4.80
46302;PMS7003;32029;51.358;5.628;2022-08-30T01:15:46;7.20;7.20;5.20
46302;PMS7003;32029;51.358;5.628;2022-08-30T01:18:15;6.33;6.33;4.67
46302;PMS7003;32029;51.358;5.628;2022-08-30T01:23:51;6.00;6.00;5.00
46302;PMS7003;32029;51.358;5.628;2022-08-30T01:26:22;7.20;6.20;5.40
46302;PMS7003;32029;51.358;5.628;2022-08-30T01:28:53;7.00;7.00;5.40
46302;PMS7003;32029;51.358;5.628;2022-08-30T01:31:23;9.00;7.33;6.00
46302;PMS7003;32029;51.358;5.628;2022-08-30T01:33:51;7.00;5.80;5.40
46302;PMS7003;32029;51.358;5.628;2022-08-30T01:36:18;8.00;6.67;5.33
46302;PMS7003;32029;51.358;5.628;2022-08-30T01:38:49;6.40;5.20;4.20
46302;PMS7003;32029;51.358;5.628;2022-08-30T01:41:23;8.80;7.40;5.00
46302;PMS7003;32029;51.358;5.628;2022-08-30T01:43:53;6.67;6.67;5.33
46302;PMS7003;32029;51.358;5.628;2022-08-30T01:46:26;6.00;6.00;5.00
46302;PMS7003;32029;51.358;5.628;2022-08-30T01:48:58;8.00;6.86;5.43
46302;PMS7003;32029;51.358;5.628;2022-08-30T01:51:26;7.00;7.00;5.60
46302;PMS7003;32029;51.358;5.628;2022-08-30T01:53:55;9.40;9.20;8.00
46302;PMS7003;32029;51.358;5.628;2022-08-30T01:56:24;5.80;5.80;5.20
46302;PMS7003;32029;51.358;5.628;2022-08-30T01:58:54;6.20;5.60;4.60
46302;PMS7003;32029;51.358;5.628;2022-08-30T02:01:22;8.00;5.00;4.33
46302;PMS7003;32029;51.358;5.628;2022-08-30T02:03:52;7.00;6.00;5.00
46302;PMS7003;32029;51.358;5.628;2022-08-30T02:06:24;6.00;6.00;5.00
46302;PMS7003;32029;51.358;5.628;2022-08-30T02:08:53;6.40;6.40;5.40
46302;PMS7003;32029;51.358;5.628;2022-08-30T02:11:21;6.20;6.00;5.00
46302;PMS7003;32029;51.358;5.628;2022-08-30T02:13:49;8.00;7.00;6.00
46302;PMS7003;32029;51.358;5.628;2022-08-30T02:16:18;6.00;6.00;5.80
46302;PMS7003;32029;51.358;5.628;2022-08-30T02:19:07;8.00;8.00;6.00
46302;PMS7003;32029;51.358;5.628;2022-08-30T02:21:34;7.67;6.33;4.67
46302;PMS7003;32029;51.358;5.628;2022-08-30T02:24:02;10.60;9.00;6.80
46302;PMS7003;32029;51.358;5.628;2022-08-30T02:26:30;6.40;6.40;5.80
46302;PMS7003;32029;51.358;5.628;2022-08-30T02:28:57;8.00;7.00;6.00
46302;PMS7003;32029;51.358;5.628;2022-08-30T02:31:26;8.40;7.00;5.00
46302;PMS7003;32029;51.358;5.628;2022-08-30T02:33:54;7.80;7.60;5.40
46302;PMS7003;32029;51.358;5.628;2022-08-30T02:36:22;7.80;7.60;6.00
46302;PMS7003;32029;51.358;5.628;2022-08-30T02:38:50;8.20;6.20;5.00
46302;PMS7003;32029;51.358;5.628;2022-08-30T02:41:19;7.60;7.60;5.80
46302;PMS7003;32029;51.358;5.628;2022-08-30T02:43:47;11.20;9.60;6.80
46302;PMS7003;32029;51.358;5.628;2022-08-30T02:46:16;6.80;6.60;5.20
46302;PMS7003;32029;51.358;5.628;2022-08-30T02:48:43;9.00;8.00;6.00
46302;PMS7003;32029;51.358;5.628;2022-08-30T02:51:12;8.67;8.00;6.00
46302;PMS7003;32029;51.358;5.628;2022-08-30T02:53:42;7.80;7.80;6.00
46302;PMS7003;32029;51.358;5.628;2022-08-30T02:56:12;10.00;8.00;6.00
46302;PMS7003;32029;51.358;5.628;2022-08-30T02:58:42;9.20;7.40;6.40
46302;PMS7003;32029;51.358;5.628;2022-08-30T03:01:10;6.33;6.33;5.00
46302;PMS7003;32029;51.358;5.628;2022-08-30T03:03:40;7.20;7.20;5.00
46302;PMS7003;32029;51.358;5.628;2022-08-30T03:06:10;7.60;7.00;5.00
46302;PMS7003;32029;51.358;5.628;2022-08-30T03:08:38;10.00;6.60;5.60
46302;PMS7003;32029;51.358;5.628;2022-08-30T03:11:07;7.80;7.20;6.00
46302;PMS7003;32029;51.358;5.628;2022-08-30T03:13:36;8.80;7.80;6.00
46302;PMS7003;32029;51.358;5.628;2022-08-30T03:16:04;5.60;5.40;5.40
46302;PMS7003;32029;51.358;5.628;2022-08-30T03:18:32;9.60;8.20;6.60
46302;PMS7003;32029;51.358;5.628;2022-08-30T03:21:00;9.00;8.00;6.20
46302;PMS7003;32029;51.358;5.628;2022-08-30T03:23:27;7.80;7.80;7.00
46302;PMS7003;32029;51.358;5.628;2022-08-30T03:25:55;8.80;7.00;6.60
46302;PMS7003;32029;51.358;5.628;2022-08-30T03:28:23;7.00;7.00;6.00
46302;PMS7003;32029;51.358;5.628;2022-08-30T03:30:51;11.80;8.00;6.40
46302;PMS7003;32029;51.358;5.628;2022-08-30T03:33:19;8.20;8.20;6.00
46302;PMS7003;32029;51.358;5.628;2022-08-30T03:35:47;10.00;6.60;5.40
46302;PMS7003;32029;51.358;5.628;2022-08-30T03:38:16;9.40;8.40;7.00
46302;PMS7003;32029;51.358;5.628;2022-08-30T03:40:43;9.00;9.00;7.00
46302;PMS7003;32029;51.358;5.628;2022-08-30T03:43:11;8.00;8.00;7.00
46302;PMS7003;32029;51.358;5.628;2022-08-30T03:45:38;8.80;7.00;6.00
46302;PMS7003;32029;51.358;5.628;2022-08-30T03:48:05;9.00;8.00;5.00
46302;PMS7003;32029;51.358;5.628;2022-08-30T03:50:33;8.80;8.80;6.40
46302;PMS7003;32029;51.358;5.628;2022-08-30T03:53:02;9.33;9.00;7.00
46302;PMS7003;32029;51.358;5.628;2022-08-30T03:55:29;10.00;8.33;6.67
46302;PMS7003;32029;51.358;5.628;2022-08-30T03:57:57;8.00;8.00;6.00
46302;PMS7003;32029;51.358;5.628;2022-08-30T04:00:25;7.00;6.60;5.80
46302;PMS7003;32029;51.358;5.628;2022-08-30T04:02:51;8.00;8.00;7.00
46302;PMS7003;32029;51.358;5.628;2022-08-30T04:05:19;12.20;8.80;6.40
46302;PMS7003;32029;51.358;5.628;2022-08-30T04:07:46;12.00;9.00;6.67
46302;PMS7003;32029;51.358;5.628;2022-08-30T04:10:14;9.20;9.00;7.20
46302;PMS7003;32029;51.358;5.628;2022-08-30T04:12:42;8.40;8.40;6.60
46302;PMS7003;32029;51.358;5.628;2022-08-30T04:15:09;9.67;7.00;6.00
46302;PMS7003;32029;51.358;5.628;2022-08-30T04:17:38;11.20;9.00;7.00
46302;PMS7003;32029;51.358;5.628;2022-08-30T04:20:06;9.00;7.20;6.00
46302;PMS7003;32029;51.358;5.628;2022-08-30T04:22:33;10.33;9.67;8.00
46302;PMS7003;32029;51.358;5.628;2022-08-30T04:25:03;11.20;10.20;8.80
46302;PMS7003;32029;51.358;5.628;2022-08-30T04:27:31;12.20;9.80;8.00
46302;PMS7003;32029;51.358;5.628;2022-08-30T04:29:58;12.67;9.67;8.00
46302;PMS7003;32029;51.358;5.628;2022-08-30T04:32:26;10.00;9.00;7.00
46302;PMS7003;32029;51.358;5.628;2022-08-30T04:34:57;12.00;11.00;7.80
46302;PMS7003;32029;51.358;5.628;2022-08-30T04:37:26;8.00;8.00;7.00
46302;PMS7003;32029;51.358;5.628;2022-08-30T04:39:54;9.40;8.40;7.00
46302;PMS7003;32029;51.358;5.628;2022-08-30T04:42:22;10.00;10.00;7.00
46302;PMS7003;32029;51.358;5.628;2022-08-30T04:44:49;9.33;9.33;7.00
46302;PMS7003;32029;51.358;5.628;2022-08-30T04:47:17;10.20;10.20;8.00
46302;PMS7003;32029;51.358;5.628;2022-08-30T04:49:44;11.33;10.33;8.67
46302;PMS7003;32029;51.358;5.628;2022-08-30T04:52:12;11.00;9.40;8.00
46302;PMS7003;32029;51.358;5.628;2022-08-30T04:54:39;8.33;8.00;6.00
46302;PMS7003;32029;51.358;5.628;2022-08-30T04:57:06;7.67;6.67;5.00
46302;PMS7003;32029;51.358;5.628;2022-08-30T04:59:32;11.00;10.00;8.00
46302;PMS7003;32029;51.358;5.628;2022-08-30T05:01:59;11.00;10.00;8.00
46302;PMS7003;32029;51.358;5.628;2022-08-30T05:04:27;10.40;9.40;6.80
46302;PMS7003;32029;51.358;5.628;2022-08-30T05:06:54;13.00;10.00;7.00
46302;PMS7003;32029;51.358;5.628;2022-08-30T05:09:21;9.33;7.33;6.00
46302;PMS7003;32029;51.358;5.628;2022-08-30T05:11:49;10.40;9.20;7.80
46302;PMS7003;32029;51.358;5.628;2022-08-30T05:14:17;12.80;10.60;7.60
46302;PMS7003;32029;51.358;5.628;2022-08-30T05:16:44;11.60;10.20;7.20
46302;PMS7003;32029;51.358;5.628;2022-08-30T05:19:12;11.40;10.20;7.60
46302;PMS7003;32029;51.358;5.628;2022-08-30T05:21:40;9.40;8.80;7.00
46302;PMS7003;32029;51.358;5.628;2022-08-30T05:24:07;10.00;10.00;7.00
46302;PMS7003;32029;51.358;5.628;2022-08-30T05:26:36;7.60;7.00;4.20
46302;PMS7003;32029;51.358;5.628;2022-08-30T05:29:04;10.00;10.00;8.00
46302;PMS7003;32029;51.358;5.628;2022-08-30T05:31:31;11.33;11.00;9.00
46302;PMS7003;32029;51.358;5.628;2022-08-30T05:34:00;10.33;10.33;8.00
46302;PMS7003;32029;51.358;5.628;2022-08-30T05:36:29;11.00;9.67;7.00
46302;PMS7003;32029;51.358;5.628;2022-08-30T05:38:57;14.33;12.33;9.00
46302;PMS7003;32029;51.358;5.628;2022-08-30T05:41:25;10.00;9.00;8.00
46302;PMS7003;32029;51.358;5.628;2022-08-30T05:43:54;12.20;11.00;8.80
46302;PMS7003;32029;51.358;5.628;2022-08-30T05:46:24;14.50;12.50;8.00
46302;PMS7003;32029;51.358;5.628;2022-08-30T05:48:54;14.00;11.00;9.00
46302;PMS7003;32029;51.358;5.628;2022-08-30T05:51:24;14.67;12.00;10.00
46302;PMS7003;32029;51.358;5.628;2022-08-30T05:53:56;8.60;7.80;6.80
46302;PMS7003;32029;51.358;5.628;2022-08-30T05:56:25;13.33;11.00;8.00
46302;PMS7003;32029;51.358;5.628;2022-08-30T05:58:55;13.67;12.00;8.67
46302;PMS7003;32029;51.358;5.628;2022-08-30T06:01:24;9.67;9.67;7.33
46302;PMS7003;32029;51.358;5.628;2022-08-30T06:03:59;13.00;10.67;9.00
46302;PMS7003;32029;51.358;5.628;2022-08-30T06:06:29;14.67;13.00;10.00
46302;PMS7003;32029;51.358;5.628;2022-08-30T06:08:57;10.67;9.67;8.67
46302;PMS7003;32029;51.358;5.628;2022-08-30T06:11:24;12.67;11.67;9.00
46302;PMS7003;32029;51.358;5.628;2022-08-30T06:13:52;18.33;13.67;9.00
46302;PMS7003;32029;51.358;5.628;2022-08-30T06:16:21;15.67;11.33;8.67
46302;PMS7003;32029;51.358;5.628;2022-08-30T06:18:50;12.67;11.67;8.00
46302;PMS7003;32029;51.358;5.628;2022-08-30T06:21:23;15.00;13.00;10.67
46302;PMS7003;32029;51.358;5.628;2022-08-30T06:23:51;15.00;12.00;9.67
46302;PMS7003;32029;51.358;5.628;2022-08-30T06:26:19;16.67;14.67;10.00
46302;PMS7003;32029;51.358;5.628;2022-08-30T06:28:47;14.00;12.00;8.67
46302;PMS7003;32029;51.358;5.628;2022-08-30T06:31:15;17.00;15.33;11.00
46302;PMS7003;32029;51.358;5.628;2022-08-30T06:33:45;14.00;13.33;9.33
46302;PMS7003;32029;51.358;5.628;2022-08-30T06:36:14;15.00;15.00;11.00
46302;PMS7003;32029;51.358;5.628;2022-08-30T06:38:45;16.67;15.00;10.00
46302;PMS7003;32029;51.358;5.628;2022-08-30T06:41:17;10.00;9.67;8.00
46302;PMS7003;32029;51.358;5.628;2022-08-30T06:43:46;14.33;12.33;9.33
46302;PMS7003;32029;51.358;5.628;2022-08-30T06:46:15;14.67;13.67;10.67
46302;PMS7003;32029;51.358;5.628;2022-08-30T06:48:44;13.67;12.00;9.00
46302;PMS7003;32029;51.358;5.628;2022-08-30T06:51:11;16.33;13.67;9.67
46302;PMS7003;32029;51.358;5.628;2022-08-30T06:53:37;16.33;13.67;9.00
46302;PMS7003;32029;51.358;5.628;2022-08-30T06:56:05;14.00;13.00;10.00
46302;PMS7003;32029;51.358;5.628;2022-08-30T06:58:35;14.00;14.00;11.67
46302;PMS7003;32029;51.358;5.628;2022-08-30T07:01:04;17.00;14.00;11.00
46302;PMS7003;32029;51.358;5.628;2022-08-30T07:03:33;13.00;12.00;9.00
46302;PMS7003;32029;51.358;5.628;2022-08-30T07:06:01;15.00;14.00;10.00
46302;PMS7003;32029;51.358;5.628;2022-08-30T07:08:30;15.00;15.00;9.33
46302;PMS7003;32029;51.358;5.628;2022-08-30T07:10:57;17.00;13.33;10.33
46302;PMS7003;32029;51.358;5.628;2022-08-30T07:13:25;13.00;13.00;10.00
46302;PMS7003;32029;51.358;5.628;2022-08-30T07:15:53;17.67;15.67;10.67
46302;PMS7003;32029;51.358;5.628;2022-08-30T07:18:20;13.67;13.67;9.00
46302;PMS7003;32029;51.358;5.628;2022-08-30T07:21:10;14.33;14.00;11.00
46302;PMS7003;32029;51.358;5.628;2022-08-30T07:23:40;16.00;15.00;10.67
46302;PMS7003;32029;51.358;5.628;2022-08-30T07:26:12;20.67;17.33;12.00
46302;PMS7003;32029;51.358;5.628;2022-08-30T07:28:41;15.67;12.00;9.67
46302;PMS7003;32029;51.358;5.628;2022-08-30T07:31:09;12.00;12.00;9.00
46302;PMS7003;32029;51.358;5.628;2022-08-30T07:33:38;18.00;14.00;10.00
46302;PMS7003;32029;51.358;5.628;2022-08-30T07:36:07;12.67;12.67;9.67
46302;PMS7003;32029;51.358;5.628;2022-08-30T07:38:35;11.33;10.00;9.00
46302;PMS7003;32029;51.358;5.628;2022-08-30T07:41:04;14.00;14.00;11.00
46302;PMS7003;32029;51.358;5.628;2022-08-30T07:43:32;11.33;11.33;8.33
46302;PMS7003;32029;51.358;5.628;2022-08-30T07:46:00;13.00;12.33;10.00
46302;PMS7003;32029;51.358;5.628;2022-08-30T07:48:29;9.33;9.33;7.33
46302;PMS7003;32029;51.358;5.628;2022-08-30T07:50:56;13.00;12.00;8.00
46302;PMS7003;32029;51.358;5.628;2022-08-30T07:53:23;14.00;12.33;9.33
46302;PMS7003;32029;51.358;5.628;2022-08-30T07:55:50;15.00;12.00;9.00
46302;PMS7003;32029;51.358;5.628;2022-08-30T07:58:18;13.67;13.00;9.00
46302;PMS7003;32029;51.358;5.628;2022-08-30T08:00:47;8.40;7.00;5.00
46302;PMS7003;32029;51.358;5.628;2022-08-30T08:03:13;14.00;14.00;10.00
46302;PMS7003;32029;51.358;5.628;2022-08-30T08:05:42;12.67;12.00;9.00
46302;PMS7003;32029;51.358;5.628;2022-08-30T08:08:10;13.33;12.00;8.33
46302;PMS7003;32029;51.358;5.628;2022-08-30T08:10:40;12.00;11.33;8.67
46302;PMS7003;32029;51.358;5.628;2022-08-30T08:13:09;12.40;10.20;8.60
46302;PMS7003;32029;51.358;5.628;2022-08-30T08:15:37;13.00;10.67;7.00
46302;PMS7003;32029;51.358;5.628;2022-08-30T08:18:04;13.00;13.00;10.00
46302;PMS7003;32029;51.358;5.628;2022-08-30T08:20:33;10.60;10.60;8.60
46302;PMS7003;32029;51.358;5.628;2022-08-30T08:23:01;11.00;11.00;8.00
46302;PMS7003;32029;51.358;5.628;2022-08-30T08:25:28;11.00;9.67;7.00
46302;PMS7003;32029;51.358;5.628;2022-08-30T08:27:55;11.00;11.00;8.67
46302;PMS7003;32029;51.358;5.628;2022-08-30T08:30:22;11.33;10.00;7.33
46302;PMS7003;32029;51.358;5.628;2022-08-30T08:32:50;9.60;9.40;7.60
46302;PMS7003;32029;51.358;5.628;2022-08-30T08:35:19;8.80;8.40;6.00
46302;PMS7003;32029;51.358;5.628;2022-08-30T08:37:45;9.00;8.00;6.00
46302;PMS7003;32029;51.358;5.628;2022-08-30T08:40:14;10.67;10.00;7.00
46302;PMS7003;32029;51.358;5.628;2022-08-30T08:48:26;13.33;9.33;7.33
46302;PMS7003;32029;51.358;5.628;2022-08-30T08:50:57;11.00;9.00;7.00
46302;PMS7003;32029;51.358;5.628;2022-08-30T08:53:45;9.80;9.80;7.60
46302;PMS7003;32029;51.358;5.628;2022-08-30T08:56:18;10.33;9.00;6.00
46302;PMS7003;32029;51.358;5.628;2022-08-30T08:58:51;6.67;5.67;3.67
46302;PMS7003;32029;51.358;5.628;2022-08-30T09:01:23;8.20;8.20;6.00
46302;PMS7003;32029;51.358;5.628;2022-08-30T09:03:54;8.60;7.00;5.00
46302;PMS7003;32029;51.358;5.628;2022-08-30T09:09:31;9.80;8.00;7.00
46302;PMS7003;32029;51.358;5.628;2022-08-30T09:12:01;12.40;6.60;6.00
46302;PMS7003;32029;51.358;5.628;2022-08-30T09:14:32;8.20;7.40;5.60
46302;PMS7003;32029;51.358;5.628;2022-08-30T09:17:06;6.60;5.40;4.80
46302;PMS7003;32029;51.358;5.628;2022-08-30T09:19:37;8.00;6.00;5.00
46302;PMS7003;32029;51.358;5.628;2022-08-30T09:22:15;9.20;7.00;5.00
46302;PMS7003;32029;51.358;5.628;2022-08-30T09:27:40;8.80;6.40;5.00
46302;PMS7003;32029;51.358;5.628;2022-08-30T09:32:52;6.00;5.20;4.00
46302;PMS7003;32029;51.358;5.628;2022-08-30T09:35:24;8.80;8.00;6.00
46302;PMS7003;32029;51.358;5.628;2022-08-30T09:37:54;6.60;5.60;4.20
46302;PMS7003;32029;51.358;5.628;2022-08-30T09:46:09;8.00;5.00;4.00
46302;PMS7003;32029;51.358;5.628;2022-08-30T09:48:37;5.60;5.40;4.00
46302;PMS7003;32029;51.358;5.628;2022-08-30T10:02:26;5.00;5.00;3.80
46302;PMS7003;32029;51.358;5.628;2022-08-30T10:05:29;7.00;5.00;4.00
46302;PMS7003;32029;51.358;5.628;2022-08-30T10:08:29;6.00;4.00;3.67
46302;PMS7003;32029;51.358;5.628;2022-08-30T10:11:04;6.00;5.00;4.20
46302;PMS7003;32029;51.358;5.628;2022-08-30T10:16:57;5.33;5.00;4.00
46302;PMS7003;32029;51.358;5.628;2022-08-30T10:20:05;5.60;5.20;4.00
46302;PMS7003;32029;51.358;5.628;2022-08-30T10:22:41;3.20;3.20;2.80
46302;PMS7003;32029;51.358;5.628;2022-08-30T10:31:27;5.80;3.80;3.20
46302;PMS7003;32029;51.358;5.628;2022-08-30T10:34:08;3.00;3.00;3.00
46302;PMS7003;32029;51.358;5.628;2022-08-30T10:36:45;6.40;5.00;3.00
46302;PMS7003;32029;51.358;5.628;2022-08-30T10:39:23;3.33;2.00;2.00
46302;PMS7003;32029;51.358;5.628;2022-08-30T10:42:01;4.40;4.40;3.60
46302;PMS7003;32029;51.358;5.628;2022-08-30T10:44:39;5.20;4.00;2.20
46302;PMS7003;32029;51.358;5.628;2022-08-30T10:52:58;4.00;4.00;3.33
46302;PMS7003;32029;51.358;5.628;2022-08-30T10:55:53;2.80;2.80;2.40
46302;PMS7003;32029;51.358;5.628;2022-08-30T10:58:29;2.00;2.00;2.00
46302;PMS7003;32029;51.358;5.628;2022-08-30T11:01:01;4.00;4.00;2.60
46302;PMS7003;32029;51.358;5.628;2022-08-30T11:13:11;3.40;2.60;2.40
46302;PMS7003;32029;51.358;5.628;2022-08-30T11:15:54;3.00;3.00;2.40
46302;PMS7003;32029;51.358;5.628;2022-08-30T11:18:22;2.00;2.00;2.00
46302;PMS7003;32029;51.358;5.628;2022-08-30T11:20:52;1.20;1.20;1.00
46302;PMS7003;32029;51.358;5.628;2022-08-30T11:23:37;1.60;1.60;0.60
46302;PMS7003;32029;51.358;5.628;2022-08-30T11:26:06;2.60;2.20;2.00
46302;PMS7003;32029;51.358;5.628;2022-08-30T11:31:28;3.80;2.00;1.60
46302;PMS7003;32029;51.358;5.628;2022-08-30T11:33:58;1.33;1.33;1.00
46302;PMS7003;32029;51.358;5.628;2022-08-30T11:46:49;1.80;1.00;1.00
46302;PMS7003;32029;51.358;5.628;2022-08-30T11:57:34;1.40;1.20;1.00
46302;PMS7003;32029;51.358;5.628;2022-08-30T12:00:32;3.40;1.20;1.00
46302;PMS7003;32029;51.358;5.628;2022-08-30T12:03:03;4.00;2.00;1.80
46302;PMS7003;32029;51.358;5.628;2022-08-30T12:10:52;1.80;1.80;1.00
46302;PMS7003;32029;51.358;5.628;2022-08-30T12:16:08;1.00;1.00;1.00
46302;PMS7003;32029;51.358;5.628;2022-08-30T12:23:52;1.00;1.00;0.80
46302;PMS7003;32029;51.358;5.628;2022-08-30T12:28:53;1.33;1.33;1.00
46302;PMS7003;32029;51.358;5.628;2022-08-30T12:31:58;2.00;1.40;1.40
46302;PMS7003;32029;51.358;5.628;2022-08-30T12:37:09;1.20;1.20;1.00
46302;PMS7003;32029;51.358;5.628;2022-08-30T12:42:33;1.67;1.00;0.33
46302;PMS7003;32029;51.358;5.628;2022-08-30T12:45:11;0.80;0.80;0.80
46302;PMS7003;32029;51.358;5.628;2022-08-30T12:50:17;4.00;2.00;1.33
46302;PMS7003;32029;51.358;5.628;2022-08-30T12:52:59;1.00;1.00;1.00
46302;PMS7003;32029;51.358;5.628;2022-08-30T12:55:32;1.00;1.00;1.00
46302;PMS7003;32029;51.358;5.628;2022-08-30T12:58:02;1.00;1.00;1.00
46302;PMS7003;32029;51.358;5.628;2022-08-30T13:00:35;0.67;0.67;0.67
46302;PMS7003;32029;51.358;5.628;2022-08-30T13:05:54;1.60;1.60;1.60
46302;PMS7003;32029;51.358;5.628;2022-08-30T13:08:24;5.33;1.33;1.33
46302;PMS7003;32029;51.358;5.628;2022-08-30T13:11:32;1.00;1.00;0.67
46302;PMS7003;32029;51.358;5.628;2022-08-30T13:19:54;0.00;0.00;0.00
46302;PMS7003;32029;51.358;5.628;2022-08-30T13:22:34;1.00;1.00;1.00
46302;PMS7003;32029;51.358;5.628;2022-08-30T13:25:04;1.00;1.00;1.00
46302;PMS7003;32029;51.358;5.628;2022-08-30T13:27:35;2.60;2.00;1.40
46302;PMS7003;32029;51.358;5.628;2022-08-30T13:30:07;1.00;1.00;1.00
46302;PMS7003;32029;51.358;5.628;2022-08-30T13:32:41;2.20;2.00;1.20
46302;PMS7003;32029;51.358;5.628;2022-08-30T13:35:08;2.00;2.00;1.67
46302;PMS7003;32029;51.358;5.628;2022-08-30T13:37:37;2.67;1.67;1.67
46302;PMS7003;32029;51.358;5.628;2022-08-30T13:40:13;1.00;1.00;1.00
46302;PMS7003;32029;51.358;5.628;2022-08-30T13:42:43;1.20;1.20;1.00
46302;PMS7003;32029;51.358;5.628;2022-08-30T13:45:10;1.33;1.33;1.33
46302;PMS7003;32029;51.358;5.628;2022-08-30T13:47:38;2.67;1.00;1.00
46302;PMS7003;32029;51.358;5.628;2022-08-30T13:50:05;1.00;1.00;1.00
46302;PMS7003;32029;51.358;5.628;2022-08-30T13:52:32;2.00;2.00;1.33
46302;PMS7003;32029;51.358;5.628;2022-08-30T13:54:58;1.67;1.67;1.00
46302;PMS7003;32029;51.358;5.628;2022-08-30T13:57:26;1.33;1.00;1.00
46302;PMS7003;32029;51.358;5.628;2022-08-30T13:59:56;1.00;1.00;1.00
46302;PMS7003;32029;51.358;5.628;2022-08-30T14:02:23;1.00;1.00;1.00
46302;PMS7003;32029;51.358;5.628;2022-08-30T14:04:51;1.00;1.00;0.80
46302;PMS7003;32029;51.358;5.628;2022-08-30T14:07:18;2.67;1.67;1.00
46302;PMS7003;32029;51.358;5.628;2022-08-30T14:09:46;1.00;1.00;0.40
46302;PMS7003;32029;51.358;5.628;2022-08-30T14:12:14;1.00;1.00;1.00
46302;PMS7003;32029;51.358;5.628;2022-08-30T14:14:40;1.33;1.00;1.00
46302;PMS7003;32029;51.358;5.628;2022-08-30T14:17:08;1.00;1.00;1.00
46302;PMS7003;32029;51.358;5.628;2022-08-30T14:19:35;2.33;1.67;1.00
46302;PMS7003;32029;51.358;5.628;2022-08-30T14:22:03;2.00;2.00;1.00
46302;PMS7003;32029;51.358;5.628;2022-08-30T14:24:31;1.80;1.20;1.00
46302;PMS7003;32029;51.358;5.628;2022-08-30T14:26:59;3.00;1.60;1.00
46302;PMS7003;32029;51.358;5.628;2022-08-30T14:29:25;2.33;2.00;2.00
46302;PMS7003;32029;51.358;5.628;2022-08-30T14:31:58;1.60;1.00;0.40
46302;PMS7003;32029;51.358;5.628;2022-08-30T14:34:26;1.00;1.00;1.00
46302;PMS7003;32029;51.358;5.628;2022-08-30T14:36:54;1.20;1.00;1.00
46302;PMS7003;32029;51.358;5.628;2022-08-30T14:39:22;0.40;0.40;0.00
46302;PMS7003;32029;51.358;5.628;2022-08-30T14:41:51;2.00;1.00;0.80
46302;PMS7003;32029;51.358;5.628;2022-08-30T14:44:20;1.00;1.00;1.00
46302;PMS7003;32029;51.358;5.628;2022-08-30T14:46:49;1.60;0.80;0.60
46302;PMS7003;32029;51.358;5.628;2022-08-30T14:49:17;1.00;1.00;1.00
46302;PMS7003;32029;51.358;5.628;2022-08-30T14:51:45;1.80;1.00;1.00
46302;PMS7003;32029;51.358;5.628;2022-08-30T14:54:15;1.00;1.00;1.00
46302;PMS7003;32029;51.358;5.628;2022-08-30T14:56:48;3.00;1.80;1.80
46302;PMS7003;32029;51.358;5.628;2022-08-30T14:59:15;1.00;1.00;0.00
46302;PMS7003;32029;51.358;5.628;2022-08-30T15:01:43;2.00;2.00;2.00
46302;PMS7003;32029;51.358;5.628;2022-08-30T15:04:11;2.67;2.00;1.00
46302;PMS7003;32029;51.358;5.628;2022-08-30T15:06:42;3.00;1.80;1.40
46302;PMS7003;32029;51.358;5.628;2022-08-30T15:09:13;5.00;4.80;4.00
46302;PMS7003;32029;51.358;5.628;2022-08-30T15:11:45;3.00;3.00;2.00
46302;PMS7003;32029;51.358;5.628;2022-08-30T15:14:13;3.00;2.00;2.00
46302;PMS7003;32029;51.358;5.628;2022-08-30T15:16:41;3.40;2.20;1.20
46302;PMS7003;32029;51.358;5.628;2022-08-30T15:19:10;2.00;2.00;2.00
46302;PMS7003;32029;51.358;5.628;2022-08-30T15:21:39;4.00;2.00;2.00
46302;PMS7003;32029;51.358;5.628;2022-08-30T15:24:10;2.00;1.20;1.00
46302;PMS7003;32029;51.358;5.628;2022-08-30T15:26:39;0.67;0.67;0.33
46302;PMS7003;32029;51.358;5.628;2022-08-30T15:29:08;3.60;3.00;2.20
46302;PMS7003;32029;51.358;5.628;2022-08-30T15:31:40;1.00;1.00;1.00
46302;PMS7003;32029;51.358;5.628;2022-08-30T15:34:09;0.00;0.00;0.00
46302;PMS7003;32029;51.358;5.628;2022-08-30T15:36:41;1.80;1.20;1.00
46302;PMS7003;32029;51.358;5.628;2022-08-30T15:39:11;1.00;1.00;1.00
46302;PMS7003;32029;51.358;5.628;2022-08-30T15:41:40;2.00;2.00;1.20
46302;PMS7003;32029;51.358;5.628;2022-08-30T15:44:08;0.80;0.80;0.80
46302;PMS7003;32029;51.358;5.628;2022-08-30T15:46:38;0.60;0.60;0.20
46302;PMS7003;32029;51.358;5.628;2022-08-30T15:51:41;1.40;1.40;1.40
46302;PMS7003;32029;51.358;5.628;2022-08-30T15:54:11;0.80;0.80;0.00
46302;PMS7003;32029;51.358;5.628;2022-08-30T15:56:40;1.33;1.33;1.00
46302;PMS7003;32029;51.358;5.628;2022-08-30T15:59:07;0.00;0.00;0.00
46302;PMS7003;32029;51.358;5.628;2022-08-30T16:01:35;1.00;1.00;1.00
46302;PMS7003;32029;51.358;5.628;2022-08-30T16:04:03;0.40;0.40;0.00
46302;PMS7003;32029;51.358;5.628;2022-08-30T16:06:32;1.20;0.00;0.00
46302;PMS7003;32029;51.358;5.628;2022-08-30T16:09:04;0.20;0.20;0.00
46302;PMS7003;32029;51.358;5.628;2022-08-30T16:11:32;0.00;0.00;0.00
46302;PMS7003;32029;51.358;5.628;2022-08-30T16:14:00;0.00;0.00;0.00
46302;PMS7003;32029;51.358;5.628;2022-08-30T16:16:28;1.60;1.00;1.00
46302;PMS7003;32029;51.358;5.628;2022-08-30T16:18:57;0.80;0.80;0.00
46302;PMS7003;32029;51.358;5.628;2022-08-30T16:21:26;2.00;1.00;0.00
46302;PMS7003;32029;51.358;5.628;2022-08-30T16:23:57;0.40;0.40;0.00
46302;PMS7003;32029;51.358;5.628;2022-08-30T16:26:26;0.33;0.33;0.33
46302;PMS7003;32029;51.358;5.628;2022-08-30T16:28:53;3.00;1.67;1.00